Hovedside
METAR-TAF:

METAR-TAF

Lufthavner :

Uppsala, Sverige

breddegrad: 59-53N, lengdegrad: 017-36E, høyde over havet: 21 m

Gjeldene værobservasjon

Denne rapporten ble laget for 23 minutter siden, klokken 15:20 UTC
Vind 3 kt fra Nord-nordøst, skiftende mellom Nord-nordvest og Øst-nordøst
Temperatur 19°C
Luftfuktighet 28%
Trykk 1035 hPa
Sikt 10 km eller mer

METAR: ESCM 181520Z AUTO 03003KT 340V070 9999 NCD 19/M00 Q1035

Tid: 17:43 (15:43 UTC)


TAF: fraværende

Værobservasjoner og værvarsel for over 4000 flyplasser (METAR- og TAF-rapporter).

Tilgjengelige stasjoner er representert av de røde og gule prikkene på kartet.

Hold musepekeren over prikken for å se navnet på stasjonen.

Klikk så for å se værobservasjoner og -varsler.

For å forandre kartet kan du klikke på den grønne knappen med svart kryss for å zoome inn, på den grønne knappen med strek for å zoome ut, eller på de grønne pilene for å se tilstøtende kart.


METAR-TAF: